London-Corbin Arpt-Magee Field (LOZ)

 

Airport Diagram
No Airport Diagram Available
Current Weather/Forecast (VFR Conditions)
METAR KLOZ 182353Z AUTO 00000KT 10SM OVC095 14/00 A2988 RMK AO2 SLP118 T01440000 10178 20144 56007
TAF KLOZ 182339Z 1900/1924 VRB03KT P6SM BKN090 FM190700 VRB03KT P6SM OVC040 TEMPO 1907/1911 5SM -SHRA BR OVC015 FM191100 29003KT P6SM BKN010 FM191600 27007KT P6SM SCT035

Airport Information

All Charts
General
Chart Name View
TAKEOFF MINIMUMS
ALTERNATE MINIMUMS
TAKEOFF MINIMUMS
ALTERNATE MINIMUMS

Approaches
Chart Name Download
ILS OR LOC RWY 06
RNAV (GPS) RWY 06
RNAV (GPS) RWY 24
VOR RWY 06
ILS OR LOC RWY 06
RNAV (GPS) RWY 06
RNAV (GPS) RWY 24
VOR RWY 06


Airport Statistics
Departures Arrivals Local
All Collected Stats since June 2016: 40 36 3
2021 Stats: 11 4 1
April Stats: 1 1 1

Inbound Traffic (Arrivals) - 0

No inbound traffic.


Outbound Traffic (Departures) - 0

No outbound traffic.


Local Traffic (Pattern) - 0

No local traffic.